sensor_id;sensor_type;location;lat;lon;timestamp;pressure;altitude;pressure_sealevel;temperature;humidity
8697;BME280;4385;48.848;8.924;2023-02-10T00:01:37;99193.53;;;13.01;100.00
8697;BME280;4385;48.848;8.924;2023-02-10T00:04:03;99185.06;;;13.01;100.00
8697;BME280;4385;48.848;8.924;2023-02-10T00:06:29;99180.84;;;13.00;100.00
8697;BME280;4385;48.848;8.924;2023-02-10T00:08:57;99186.75;;;13.00;100.00
8697;BME280;4385;48.848;8.924;2023-02-10T00:11:23;99189.22;;;12.99;100.00
8697;BME280;4385;48.848;8.924;2023-02-10T00:14:08;99193.41;;;12.96;100.00
8697;BME280;4385;48.848;8.924;2023-02-10T00:16:34;99198.44;;;12.95;100.00
8697;BME280;4385;48.848;8.924;2023-02-10T00:18:59;99195.00;;;12.93;100.00
8697;BME280;4385;48.848;8.924;2023-02-10T00:21:25;99194.94;;;12.91;100.00
8697;BME280;4385;48.848;8.924;2023-02-10T00:23:50;99189.84;;;12.90;100.00
8697;BME280;4385;48.848;8.924;2023-02-10T00:26:15;99192.34;;;12.88;100.00
8697;BME280;4385;48.848;8.924;2023-02-10T00:28:41;99191.41;;;12.86;100.00
8697;BME280;4385;48.848;8.924;2023-02-10T00:31:07;99188.00;;;12.84;100.00
8697;BME280;4385;48.848;8.924;2023-02-10T00:33:33;99190.44;;;12.81;100.00
8697;BME280;4385;48.848;8.924;2023-02-10T00:35:58;99191.19;;;12.78;100.00
8697;BME280;4385;48.848;8.924;2023-02-10T00:38:23;99195.38;;;12.76;100.00
8697;BME280;4385;48.848;8.924;2023-02-10T00:40:49;99198.66;;;12.74;100.00
8697;BME280;4385;48.848;8.924;2023-02-10T00:43:14;99207.00;;;12.69;100.00
8697;BME280;4385;48.848;8.924;2023-02-10T00:45:39;99209.38;;;12.65;100.00
8697;BME280;4385;48.848;8.924;2023-02-10T00:48:04;99211.00;;;12.63;100.00
8697;BME280;4385;48.848;8.924;2023-02-10T00:50:30;99210.06;;;12.59;100.00
8697;BME280;4385;48.848;8.924;2023-02-10T00:52:55;99207.50;;;12.57;100.00
8697;BME280;4385;48.848;8.924;2023-02-10T00:55:20;99207.59;;;12.61;100.00
8697;BME280;4385;48.848;8.924;2023-02-10T00:57:46;99207.59;;;12.61;100.00
8697;BME280;4385;48.848;8.924;2023-02-10T01:00:11;99203.41;;;12.63;100.00
8697;BME280;4385;48.848;8.924;2023-02-10T01:02:37;99190.81;;;12.64;100.00
8697;BME280;4385;48.848;8.924;2023-02-10T01:05:02;99194.28;;;12.68;100.00
8697;BME280;4385;48.848;8.924;2023-02-10T01:07:28;99191.81;;;12.69;100.00
8697;BME280;4385;48.848;8.924;2023-02-10T01:09:54;99207.91;;;12.71;100.00
8697;BME280;4385;48.848;8.924;2023-02-10T01:12:19;99196.19;;;12.75;100.00
8697;BME280;4385;48.848;8.924;2023-02-10T01:14:45;99206.28;;;12.75;100.00
8697;BME280;4385;48.848;8.924;2023-02-10T01:17:10;99202.94;;;12.75;100.00
8697;BME280;4385;48.848;8.924;2023-02-10T01:19:35;99210.47;;;12.73;100.00
8697;BME280;4385;48.848;8.924;2023-02-10T01:22:00;99215.44;;;12.70;100.00
8697;BME280;4385;48.848;8.924;2023-02-10T01:24:26;99211.13;;;12.67;100.00
8697;BME280;4385;48.848;8.924;2023-02-10T01:26:51;99208.50;;;12.64;100.00
8697;BME280;4385;48.848;8.924;2023-02-10T01:29:17;99210.13;;;12.61;100.00
8697;BME280;4385;48.848;8.924;2023-02-10T01:31:42;99215.13;;;12.59;100.00
8697;BME280;4385;48.848;8.924;2023-02-10T01:34:08;99223.50;;;12.58;100.00
8697;BME280;4385;48.848;8.924;2023-02-10T01:36:34;99219.19;;;12.54;100.00
8697;BME280;4385;48.848;8.924;2023-02-10T01:39:00;99225.91;;;12.53;100.00
8697;BME280;4385;48.848;8.924;2023-02-10T01:41:25;99215.78;;;12.53;100.00
8697;BME280;4385;48.848;8.924;2023-02-10T01:43:59;99223.38;;;12.53;100.00
8697;BME280;4385;48.848;8.924;2023-02-10T01:46:30;99220.00;;;12.53;100.00
8697;BME280;4385;48.848;8.924;2023-02-10T01:48:57;99219.16;;;12.52;100.00
8697;BME280;4385;48.848;8.924;2023-02-10T01:51:33;99223.34;;;12.52;100.00
8697;BME280;4385;48.848;8.924;2023-02-10T01:54:02;99225.03;;;12.51;100.00
8697;BME280;4385;48.848;8.924;2023-02-10T01:56:28;99232.56;;;12.50;100.00
8697;BME280;4385;48.848;8.924;2023-02-10T01:58:53;99235.88;;;12.49;100.00
8697;BME280;4385;48.848;8.924;2023-02-10T02:01:18;99239.22;;;12.47;100.00
8697;BME280;4385;48.848;8.924;2023-02-10T02:03:44;99239.19;;;12.46;100.00
8697;BME280;4385;48.848;8.924;2023-02-10T02:06:10;99237.47;;;12.45;100.00
8697;BME280;4385;48.848;8.924;2023-02-10T02:08:36;99233.25;;;12.45;100.00
8697;BME280;4385;48.848;8.924;2023-02-10T02:19:42;99250.03;;;12.42;100.00
8697;BME280;4385;48.848;8.924;2023-02-10T02:33:33;99244.84;;;12.37;100.00
8697;BME280;4385;48.848;8.924;2023-02-10T02:36:26;99257.34;;;12.32;100.00
8697;BME280;4385;48.848;8.924;2023-02-10T02:38:59;99244.59;;;12.29;100.00
8697;BME280;4385;48.848;8.924;2023-02-10T02:41:24;99248.75;;;12.27;100.00
8697;BME280;4385;48.848;8.924;2023-02-10T02:43:50;99258.84;;;12.27;100.00
8697;BME280;4385;48.848;8.924;2023-02-10T02:49:41;99248.75;;;12.27;100.00
8697;BME280;4385;48.848;8.924;2023-02-10T02:52:11;99250.44;;;12.28;100.00
8697;BME280;4385;48.848;8.924;2023-02-10T02:54:56;99244.56;;;12.28;100.00
8697;BME280;4385;48.848;8.924;2023-02-10T03:00:12;99242.75;;;12.25;100.00
8697;BME280;4385;48.848;8.924;2023-02-10T03:02:39;99247.88;;;12.27;100.00
8697;BME280;4385;48.848;8.924;2023-02-10T03:05:10;99251.31;;;12.29;100.00
8697;BME280;4385;48.848;8.924;2023-02-10T03:07:35;99250.50;;;12.30;100.00
8697;BME280;4385;48.848;8.924;2023-02-10T03:10:02;99246.31;;;12.30;100.00
8697;BME280;4385;48.848;8.924;2023-02-10T03:12:28;99250.53;;;12.31;100.00
8697;BME280;4385;48.848;8.924;2023-02-10T03:14:53;99247.16;;;12.31;100.00
8697;BME280;4385;48.848;8.924;2023-02-10T03:17:18;99250.59;;;12.33;100.00
8697;BME280;4385;48.848;8.924;2023-02-10T03:19:44;99249.69;;;12.31;100.00
8697;BME280;4385;48.848;8.924;2023-02-10T03:22:09;99253.06;;;12.31;100.00
8697;BME280;4385;48.848;8.924;2023-02-10T03:24:34;99266.56;;;12.32;100.00
8697;BME280;4385;48.848;8.924;2023-02-10T03:26:59;99259.03;;;12.33;100.00
8697;BME280;4385;48.848;8.924;2023-02-10T03:29:25;99264.91;;;12.32;100.00
8697;BME280;4385;48.848;8.924;2023-02-10T03:31:50;99263.19;;;12.31;100.00
8697;BME280;4385;48.848;8.924;2023-02-10T03:34:15;99261.53;;;12.32;100.00
8697;BME280;4385;48.848;8.924;2023-02-10T03:36:41;99266.53;;;12.30;100.00
8697;BME280;4385;48.848;8.924;2023-02-10T03:39:06;99274.06;;;12.29;100.00
8697;BME280;4385;48.848;8.924;2023-02-10T03:41:31;99274.88;;;12.28;100.00
8697;BME280;4385;48.848;8.924;2023-02-10T03:43:57;99276.53;;;12.27;100.00
8697;BME280;4385;48.848;8.924;2023-02-10T03:46:22;99275.63;;;12.25;100.00
8697;BME280;4385;48.848;8.924;2023-02-10T03:48:47;99279.06;;;12.27;100.00
8697;BME280;4385;48.848;8.924;2023-02-10T03:51:13;99268.97;;;12.27;100.00
8697;BME280;4385;48.848;8.924;2023-02-10T03:53:38;99272.47;;;12.31;100.00
8697;BME280;4385;48.848;8.924;2023-02-10T03:56:04;99274.16;;;12.32;100.00
8697;BME280;4385;48.848;8.924;2023-02-10T03:58:29;99279.28;;;12.33;100.00
8697;BME280;4385;48.848;8.924;2023-02-10T04:00:55;99282.72;;;12.36;100.00
8697;BME280;4385;48.848;8.924;2023-02-10T04:03:20;99284.41;;;12.37;100.00
8697;BME280;4385;48.848;8.924;2023-02-10T04:05:45;99291.19;;;12.38;100.00
8697;BME280;4385;48.848;8.924;2023-02-10T04:08:11;99287.88;;;12.39;100.00
8697;BME280;4385;48.848;8.924;2023-02-10T04:10:36;99292.09;;;12.40;100.00
8697;BME280;4385;48.848;8.924;2023-02-10T04:13:02;99285.34;;;12.39;100.00
8697;BME280;4385;48.848;8.924;2023-02-10T04:15:27;99282.81;;;12.39;100.00
8697;BME280;4385;48.848;8.924;2023-02-10T04:17:53;99281.06;;;12.38;100.00
8697;BME280;4385;48.848;8.924;2023-02-10T04:20:18;99291.19;;;12.38;100.00
8697;BME280;4385;48.848;8.924;2023-02-10T04:22:44;99284.41;;;12.37;100.00
8697;BME280;4385;48.848;8.924;2023-02-10T04:25:10;99287.00;;;12.38;100.00
8697;BME280;4385;48.848;8.924;2023-02-10T04:27:35;99285.28;;;12.37;100.00
8697;BME280;4385;48.848;8.924;2023-02-10T04:30:01;99291.19;;;12.38;100.00
8697;BME280;4385;48.848;8.924;2023-02-10T04:32:27;99286.94;;;12.37;100.00
8697;BME280;4385;48.848;8.924;2023-02-10T04:34:52;99284.31;;;12.33;100.00
8697;BME280;4385;48.848;8.924;2023-02-10T04:37:17;99288.47;;;12.31;100.00
8697;BME280;4385;48.848;8.924;2023-02-10T04:39:43;99293.47;;;12.30;100.00
8697;BME280;4385;48.848;8.924;2023-02-10T04:42:08;99287.47;;;12.26;100.00
8697;BME280;4385;48.848;8.924;2023-02-10T04:44:33;99286.59;;;12.26;100.00
8697;BME280;4385;48.848;8.924;2023-02-10T04:46:59;99292.44;;;12.23;100.00
8697;BME280;4385;48.848;8.924;2023-02-10T04:49:25;99294.03;;;12.21;100.00
8697;BME280;4385;48.848;8.924;2023-02-10T04:51:50;99296.47;;;12.18;100.00
8697;BME280;4385;48.848;8.924;2023-02-10T04:54:15;99293.03;;;12.16;100.00
8697;BME280;4385;48.848;8.924;2023-02-10T04:56:41;99292.25;;;12.17;100.00
8697;BME280;4385;48.848;8.924;2023-02-10T04:59:06;99293.06;;;12.17;100.00
8697;BME280;4385;48.848;8.924;2023-02-10T05:01:32;99290.53;;;12.17;100.00
8697;BME280;4385;48.848;8.924;2023-02-10T05:03:57;99292.25;;;12.17;100.00
8697;BME280;4385;48.848;8.924;2023-02-10T05:06:23;99298.19;;;12.19;100.00
8697;BME280;4385;48.848;8.924;2023-02-10T05:08:48;99302.44;;;12.20;100.00
8697;BME280;4385;48.848;8.924;2023-02-10T05:11:14;99303.22;;;12.19;100.00
8697;BME280;4385;48.848;8.924;2023-02-10T05:13:40;99306.63;;;12.19;100.00
8697;BME280;4385;48.848;8.924;2023-02-10T05:16:11;99309.22;;;12.21;100.00
8697;BME280;4385;48.848;8.924;2023-02-10T05:18:37;99309.22;;;12.21;100.00
8697;BME280;4385;48.848;8.924;2023-02-10T05:21:05;99304.25;;;12.24;100.00
8697;BME280;4385;48.848;8.924;2023-02-10T05:23:31;99311.88;;;12.26;100.00
8697;BME280;4385;48.848;8.924;2023-02-10T05:25:57;99309.34;;;12.26;100.00
8697;BME280;4385;48.848;8.924;2023-02-10T05:28:22;99305.97;;;12.25;100.00
8697;BME280;4385;48.848;8.924;2023-02-10T05:30:48;99310.19;;;12.25;100.00
8697;BME280;4385;48.848;8.924;2023-02-10T05:33:14;99313.53;;;12.25;100.00
8697;BME280;4385;48.848;8.924;2023-02-10T05:35:39;99317.72;;;12.23;100.00
8697;BME280;4385;48.848;8.924;2023-02-10T05:38:04;99317.63;;;12.20;100.00
8697;BME280;4385;48.848;8.924;2023-02-10T05:40:30;99314.16;;;12.18;100.00
8697;BME280;4385;48.848;8.924;2023-02-10T05:42:56;99317.50;;;12.17;100.00
8697;BME280;4385;48.848;8.924;2023-02-10T05:45:21;99319.13;;;12.15;100.00
8697;BME280;4385;48.848;8.924;2023-02-10T05:47:47;99319.13;;;12.15;100.00
8697;BME280;4385;48.848;8.924;2023-02-10T05:50:12;99320.81;;;12.16;100.00
8697;BME280;4385;48.848;8.924;2023-02-10T05:52:38;99324.28;;;12.18;100.00
8697;BME280;4385;48.848;8.924;2023-02-10T05:55:03;99320.94;;;12.19;100.00
8697;BME280;4385;48.848;8.924;2023-02-10T05:57:29;99329.44;;;12.21;100.00
8697;BME280;4385;48.848;8.924;2023-02-10T05:59:54;99329.53;;;12.24;100.00
8697;BME280;4385;48.848;8.924;2023-02-10T06:02:19;99331.25;;;12.25;100.00
8697;BME280;4385;48.848;8.924;2023-02-10T06:04:45;99331.28;;;12.27;100.00
8697;BME280;4385;48.848;8.924;2023-02-10T06:07:10;99341.47;;;12.28;100.00
8697;BME280;4385;48.848;8.924;2023-02-10T06:09:35;99341.47;;;12.28;100.00
8697;BME280;4385;48.848;8.924;2023-02-10T06:12:00;99357.50;;;12.29;100.00
8697;BME280;4385;48.848;8.924;2023-02-10T06:14:27;99357.50;;;12.29;100.00
8697;BME280;4385;48.848;8.924;2023-02-10T06:16:52;99357.50;;;12.29;100.00
8697;BME280;4385;48.848;8.924;2023-02-10T06:19:18;99366.00;;;12.31;100.00
8697;BME280;4385;48.848;8.924;2023-02-10T06:21:43;99366.84;;;12.31;100.00
8697;BME280;4385;48.848;8.924;2023-02-10T06:24:08;99365.13;;;12.30;100.00
8697;BME280;4385;48.848;8.924;2023-02-10T06:26:35;99367.66;;;12.30;100.00
8697;BME280;4385;48.848;8.924;2023-02-10T06:29:01;99370.19;;;12.30;100.00
8697;BME280;4385;48.848;8.924;2023-02-10T06:31:27;99371.78;;;12.28;100.00
8697;BME280;4385;48.848;8.924;2023-02-10T06:33:52;99381.03;;;12.26;100.00
8697;BME280;4385;48.848;8.924;2023-02-10T06:36:18;99385.19;;;12.26;100.00
8697;BME280;4385;48.848;8.924;2023-02-10T06:38:43;99375.84;;;12.23;100.00
8697;BME280;4385;48.848;8.924;2023-02-10T06:41:09;99383.34;;;12.20;100.00
8697;BME280;4385;48.848;8.924;2023-02-10T06:43:34;99387.47;;;12.18;100.00
8697;BME280;4385;48.848;8.924;2023-02-10T06:45:59;99383.22;;;12.17;100.00
8697;BME280;4385;48.848;8.924;2023-02-10T06:48:25;99384.84;;;12.15;100.00
8697;BME280;4385;48.848;8.924;2023-02-10T06:50:51;99389.91;;;12.15;100.00
8697;BME280;4385;48.848;8.924;2023-02-10T06:53:18;99388.13;;;12.12;100.00
8697;BME280;4385;48.848;8.924;2023-02-10T06:55:43;99404.09;;;12.11;100.00
8697;BME280;4385;48.848;8.924;2023-02-10T06:58:09;99399.03;;;12.11;100.00
8697;BME280;4385;48.848;8.924;2023-02-10T07:00:34;99394.84;;;12.12;100.00
8697;BME280;4385;48.848;8.924;2023-02-10T07:03:00;99396.59;;;12.14;100.00
8697;BME280;4385;48.848;8.924;2023-02-10T07:05:25;99397.47;;;12.15;100.00
8697;BME280;4385;48.848;8.924;2023-02-10T07:07:51;99395.06;;;12.18;100.00
8697;BME280;4385;48.848;8.924;2023-02-10T07:10:18;99397.69;;;12.21;100.00
8697;BME280;4385;48.848;8.924;2023-02-10T07:12:44;99402.03;;;12.25;100.00
8697;BME280;4385;48.848;8.924;2023-02-10T07:15:12;99396.97;;;12.25;100.00
8697;BME280;4385;48.848;8.924;2023-02-10T07:17:38;99396.03;;;12.21;100.00
8697;BME280;4385;48.848;8.924;2023-02-10T07:20:04;99401.13;;;12.23;100.00
8697;BME280;4385;48.848;8.924;2023-02-10T07:22:29;99396.91;;;12.24;100.00
8697;BME280;4385;48.848;8.924;2023-02-10T07:24:54;99396.91;;;12.24;100.00
8697;BME280;4385;48.848;8.924;2023-02-10T07:27:20;99407.91;;;12.24;100.00
8697;BME280;4385;48.848;8.924;2023-02-10T07:29:45;99400.28;;;12.22;100.00
8697;BME280;4385;48.848;8.924;2023-02-10T07:32:12;99403.63;;;12.21;100.00
8697;BME280;4385;48.848;8.924;2023-02-10T07:34:37;99411.19;;;12.21;100.00
8697;BME280;4385;48.848;8.924;2023-02-10T07:37:05;99412.03;;;12.22;100.00
8697;BME280;4385;48.848;8.924;2023-02-10T07:39:30;99419.69;;;12.24;100.00
8697;BME280;4385;48.848;8.924;2023-02-10T07:41:55;99415.69;;;12.30;100.00
8697;BME280;4385;48.848;8.924;2023-02-10T07:44:21;99422.56;;;12.34;100.00
8697;BME280;4385;48.848;8.924;2023-02-10T07:46:47;99421.84;;;12.37;100.00
8697;BME280;4385;48.848;8.924;2023-02-10T07:49:12;99407.56;;;12.39;100.00
8697;BME280;4385;48.848;8.924;2023-02-10T07:51:37;99403.50;;;12.44;100.00
8697;BME280;4385;48.848;8.924;2023-02-10T07:54:03;99393.59;;;12.51;100.00
8697;BME280;4385;48.848;8.924;2023-02-10T07:56:28;99396.28;;;12.55;100.00
8697;BME280;4385;48.848;8.924;2023-02-10T07:58:54;99394.00;;;12.63;100.00
8697;BME280;4385;48.848;8.924;2023-02-10T08:01:19;99404.31;;;12.69;100.00
8697;BME280;4385;48.848;8.924;2023-02-10T08:03:44;99406.13;;;12.74;100.00
8697;BME280;4385;48.848;8.924;2023-02-10T08:06:09;99405.56;;;12.82;100.00
8697;BME280;4385;48.848;8.924;2023-02-10T08:08:35;99404.94;;;12.90;100.00
8697;BME280;4385;48.848;8.924;2023-02-10T08:11:06;99407.47;;;12.90;100.00
8697;BME280;4385;48.848;8.924;2023-02-10T08:13:32;99417.59;;;12.90;100.00
8697;BME280;4385;48.848;8.924;2023-02-10T08:15:58;99415.03;;;12.88;100.00
8697;BME280;4385;48.848;8.924;2023-02-10T08:18:23;99411.56;;;12.86;100.00
8697;BME280;4385;48.848;8.924;2023-02-10T08:20:48;99415.78;;;12.86;100.00
8697;BME280;4385;48.848;8.924;2023-02-10T08:23:15;99424.19;;;12.84;100.00
8697;BME280;4385;48.848;8.924;2023-02-10T08:25:41;99420.81;;;12.84;100.00
8697;BME280;4385;48.848;8.924;2023-02-10T08:28:07;99419.88;;;12.82;100.00
8697;BME280;4385;48.848;8.924;2023-02-10T08:30:32;99419.00;;;12.81;100.00
8697;BME280;4385;48.848;8.924;2023-02-10T08:32:58;99421.50;;;12.80;100.00
8697;BME280;4385;48.848;8.924;2023-02-10T08:35:24;99423.97;;;12.78;100.00
8697;BME280;4385;48.848;8.924;2023-02-10T08:37:50;99424.69;;;12.74;100.00
8697;BME280;4385;48.848;8.924;2023-02-10T08:40:15;99424.66;;;12.72;100.00
8697;BME280;4385;48.848;8.924;2023-02-10T08:42:40;99427.13;;;12.71;100.00
8697;BME280;4385;48.848;8.924;2023-02-10T08:45:06;99422.06;;;12.71;100.00
8697;BME280;4385;48.848;8.924;2023-02-10T08:47:33;99426.31;;;12.72;100.00
8697;BME280;4385;48.848;8.924;2023-02-10T08:49:58;99418.78;;;12.74;100.00
8697;BME280;4385;48.848;8.924;2023-02-10T08:52:23;99414.63;;;12.76;100.00
8697;BME280;4385;48.848;8.924;2023-02-10T08:54:49;99418.88;;;12.77;100.00
8697;BME280;4385;48.848;8.924;2023-02-10T08:57:14;99415.59;;;12.79;100.00
8697;BME280;4385;48.848;8.924;2023-02-10T08:59:39;99411.47;;;12.83;100.00
8697;BME280;4385;48.848;8.924;2023-02-10T09:02:05;99409.81;;;12.83;100.00
8697;BME280;4385;48.848;8.924;2023-02-10T09:04:30;99422.56;;;12.87;100.00
8697;BME280;4385;48.848;8.924;2023-02-10T09:06:55;99413.25;;;12.86;100.00
8697;BME280;4385;48.848;8.924;2023-02-10T09:09:22;99421.78;;;12.89;100.00
8697;BME280;4385;48.848;8.924;2023-02-10T09:11:50;99427.72;;;12.90;100.00
8697;BME280;4385;48.848;8.924;2023-02-10T09:14:15;99432.78;;;12.90;100.00
8697;BME280;4385;48.848;8.924;2023-02-10T09:16:41;99435.25;;;12.88;100.00
8697;BME280;4385;48.848;8.924;2023-02-10T09:19:06;99432.78;;;12.90;100.00
8697;BME280;4385;48.848;8.924;2023-02-10T09:21:31;99435.25;;;12.88;100.00
8697;BME280;4385;48.848;8.924;2023-02-10T09:23:57;99435.22;;;12.87;100.00
8697;BME280;4385;48.848;8.924;2023-02-10T09:26:22;99440.22;;;12.85;100.00
8697;BME280;4385;48.848;8.924;2023-02-10T09:28:47;99435.16;;;12.85;100.00
8697;BME280;4385;48.848;8.924;2023-02-10T09:31:14;99437.66;;;12.83;100.00
8697;BME280;4385;48.848;8.924;2023-02-10T09:33:41;99432.53;;;12.82;100.00
8697;BME280;4385;48.848;8.924;2023-02-10T09:36:10;99433.31;;;12.79;100.00
8697;BME280;4385;48.848;8.924;2023-02-10T09:38:37;99427.44;;;12.80;100.00
8697;BME280;4385;48.848;8.924;2023-02-10T09:46:53;99425.34;;;12.94;100.00
8697;BME280;4385;48.848;8.924;2023-02-10T09:52:54;99427.34;;;13.05;100.00
8697;BME280;4385;48.848;8.924;2023-02-10T09:55:30;99430.88;;;13.10;100.00
8697;BME280;4385;48.848;8.924;2023-02-10T10:00:35;99425.28;;;13.20;100.00
8697;BME280;4385;48.848;8.924;2023-02-10T10:03:05;99425.50;;;13.28;100.00
8697;BME280;4385;48.848;8.924;2023-02-10T10:05:40;99433.22;;;13.33;100.00
8697;BME280;4385;48.848;8.924;2023-02-10T10:08:19;99434.09;;;13.33;100.00
8697;BME280;4385;48.848;8.924;2023-02-10T10:10:46;99440.00;;;13.32;100.00
8697;BME280;4385;48.848;8.924;2023-02-10T10:13:20;99437.38;;;13.29;100.00
8697;BME280;4385;48.848;8.924;2023-02-10T10:16:19;99442.44;;;13.29;100.00
8697;BME280;4385;48.848;8.924;2023-02-10T10:18:57;99441.53;;;13.27;100.00
8697;BME280;4385;48.848;8.924;2023-02-10T10:21:34;99442.34;;;13.26;100.00
8697;BME280;4385;48.848;8.924;2023-02-10T10:29:27;99447.31;;;13.23;100.00
8697;BME280;4385;48.848;8.924;2023-02-10T10:32:02;99447.31;;;13.23;100.00
8697;BME280;4385;48.848;8.924;2023-02-10T10:34:34;99443.97;;;13.24;100.00
8697;BME280;4385;48.848;8.924;2023-02-10T10:37:05;99448.94;;;13.21;100.00
8697;BME280;4385;48.848;8.924;2023-02-10T10:39:42;99446.34;;;13.19;100.00
8697;BME280;4385;48.848;8.924;2023-02-10T10:42:40;99437.78;;;13.16;100.00
8697;BME280;4385;48.848;8.924;2023-02-10T10:45:13;99432.63;;;13.13;100.00
8697;BME280;4385;48.848;8.924;2023-02-10T10:47:44;99438.50;;;13.12;100.00
8697;BME280;4385;48.848;8.924;2023-02-10T10:50:16;99436.81;;;13.11;100.00
8697;BME280;4385;48.848;8.924;2023-02-10T10:52:43;99430.09;;;13.13;100.00
8697;BME280;4385;48.848;8.924;2023-02-10T10:55:18;99428.47;;;13.15;100.00
8697;BME280;4385;48.848;8.924;2023-02-10T10:57:46;99425.94;;;13.15;100.00
8697;BME280;4385;48.848;8.924;2023-02-10T11:00:23;99426.88;;;13.17;100.00
8697;BME280;4385;48.848;8.924;2023-02-10T11:03:00;99428.66;;;13.21;100.00
8697;BME280;4385;48.848;8.924;2023-02-10T11:05:37;99432.22;;;13.26;100.00
8697;BME280;4385;48.848;8.924;2023-02-10T11:08:06;99428.94;;;13.30;100.00
8697;BME280;4385;48.848;8.924;2023-02-10T11:13:04;99422.28;;;13.32;100.00
8697;BME280;4385;48.848;8.924;2023-02-10T11:17:56;99428.94;;;13.30;100.00
8697;BME280;4385;48.848;8.924;2023-02-10T11:20:29;99418.81;;;13.30;100.00
8697;BME280;4385;48.848;8.924;2023-02-10T11:23:15;99430.69;;;13.33;100.00
8697;BME280;4385;48.848;8.924;2023-02-10T11:25:45;99423.09;;;13.33;100.00
8697;BME280;4385;48.848;8.924;2023-02-10T11:28:20;99432.44;;;13.34;100.00
8697;BME280;4385;48.848;8.924;2023-02-10T11:30:47;99428.25;;;13.36;100.00
8697;BME280;4385;48.848;8.924;2023-02-10T11:33:22;99432.44;;;13.34;100.00
8697;BME280;4385;48.848;8.924;2023-02-10T11:35:49;99423.97;;;13.33;100.00
8697;BME280;4385;48.848;8.924;2023-02-10T11:38:20;99429.72;;;13.28;100.00
8697;BME280;4385;48.848;8.924;2023-02-10T11:43:15;99429.59;;;13.23;100.00
8697;BME280;4385;48.848;8.924;2023-02-10T11:45:54;99429.63;;;13.25;100.00
8697;BME280;4385;48.848;8.924;2023-02-10T11:48:23;99423.78;;;13.27;100.00
8697;BME280;4385;48.848;8.924;2023-02-10T11:51:00;99423.78;;;13.27;100.00
8697;BME280;4385;48.848;8.924;2023-02-10T11:53:29;99411.13;;;13.27;100.00
8697;BME280;4385;48.848;8.924;2023-02-10T11:56:14;99422.19;;;13.29;100.00
8697;BME280;4385;48.848;8.924;2023-02-10T12:06:43;99406.38;;;13.38;100.00
8697;BME280;4385;48.848;8.924;2023-02-10T12:09:26;99412.41;;;13.42;100.00
8697;BME280;4385;48.848;8.924;2023-02-10T12:12:08;99400.66;;;13.45;100.00
8697;BME280;4385;48.848;8.924;2023-02-10T12:14:57;99401.59;;;13.47;100.00
8697;BME280;4385;48.848;8.924;2023-02-10T12:17:29;99398.19;;;13.47;100.00
8697;BME280;4385;48.848;8.924;2023-02-10T12:25:48;99394.16;;;13.52;100.00
8697;BME280;4385;48.848;8.924;2023-02-10T12:28:22;99388.25;;;13.53;100.00
8697;BME280;4385;48.848;8.924;2023-02-10T12:31:03;99394.16;;;13.52;100.00
8697;BME280;4385;48.848;8.924;2023-02-10T12:36:31;99387.13;;;13.43;100.00
8697;BME280;4385;48.848;8.924;2023-02-10T12:50:16;99366.72;;;13.39;100.00
8697;BME280;4385;48.848;8.924;2023-02-10T12:52:54;99369.31;;;13.40;100.00
8697;BME280;4385;48.848;8.924;2023-02-10T12:56:20;99369.34;;;13.42;100.00
8697;BME280;4385;48.848;8.924;2023-02-10T12:58:34;99364.38;;;13.45;100.00
8697;BME280;4385;48.848;8.924;2023-02-10T13:01:31;99366.13;;;13.47;100.00
8697;BME280;4385;48.848;8.924;2023-02-10T13:04:16;99358.56;;;13.49;100.00
8697;BME280;4385;48.848;8.924;2023-02-10T13:06:57;99350.97;;;13.49;100.00
8697;BME280;4385;48.848;8.924;2023-02-10T13:09:41;99359.50;;;13.51;100.00
8697;BME280;4385;48.848;8.924;2023-02-10T13:14:42;99358.78;;;13.55;100.00
8697;BME280;4385;48.848;8.924;2023-02-10T13:17:09;99356.31;;;13.58;100.00
8697;BME280;4385;48.848;8.924;2023-02-10T13:19:58;99362.38;;;13.64;100.00
8697;BME280;4385;48.848;8.924;2023-02-10T13:22:42;99354.00;;;13.66;100.00
8697;BME280;4385;48.848;8.924;2023-02-10T13:25:18;99360.72;;;13.66;100.00
8697;BME280;4385;48.848;8.924;2023-02-10T13:28:11;99358.16;;;13.64;100.00
8697;BME280;4385;48.848;8.924;2023-02-10T13:35:46;99358.66;;;13.51;100.00
8697;BME280;4385;48.848;8.924;2023-02-10T13:38:20;99365.25;;;13.47;100.00
8697;BME280;4385;48.848;8.924;2023-02-10T13:40:56;99365.09;;;13.41;100.00
8697;BME280;4385;48.848;8.924;2023-02-10T13:43:43;99364.19;;;13.39;100.00
8697;BME280;4385;48.848;8.924;2023-02-10T13:46:20;99365.00;;;13.38;100.00
8697;BME280;4385;48.848;8.924;2023-02-10T13:48:51;99356.50;;;13.36;100.00
8697;BME280;4385;48.848;8.924;2023-02-10T13:51:34;99356.47;;;13.34;100.00
8697;BME280;4385;48.848;8.924;2023-02-10T13:54:00;99364.91;;;13.34;100.00
8697;BME280;4385;48.848;8.924;2023-02-10T13:56:28;99365.78;;;13.35;100.00
8697;BME280;4385;48.848;8.924;2023-02-10T13:59:05;99365.09;;;13.41;100.00
8697;BME280;4385;48.848;8.924;2023-02-10T14:02:19;99366.91;;;13.45;100.00
8697;BME280;4385;48.848;8.924;2023-02-10T14:04:51;99368.63;;;13.46;100.00
8697;BME280;4385;48.848;8.924;2023-02-10T14:10:00;99356.13;;;13.51;100.00
8697;BME280;4385;48.848;8.924;2023-02-10T14:12:28;99360.47;;;13.56;100.00
8697;BME280;4385;48.848;8.924;2023-02-10T14:14:54;99361.47;;;13.62;100.00
8697;BME280;4385;48.848;8.924;2023-02-10T14:17:22;99359.91;;;13.65;100.00
8697;BME280;4385;48.848;8.924;2023-02-10T14:19:53;99360.72;;;13.66;100.00
8697;BME280;4385;48.848;8.924;2023-02-10T14:22:27;99365.81;;;13.66;100.00
8697;BME280;4385;48.848;8.924;2023-02-10T14:24:59;99360.69;;;13.64;100.00
8697;BME280;4385;48.848;8.924;2023-02-10T14:27:25;99355.66;;;13.66;100.00
8697;BME280;4385;48.848;8.924;2023-02-10T14:30:15;99352.34;;;13.67;100.00
8697;BME280;4385;48.848;8.924;2023-02-10T14:32:44;99361.59;;;13.66;100.00
8697;BME280;4385;48.848;8.924;2023-02-10T14:35:19;99354.78;;;13.64;100.00
8697;BME280;4385;48.848;8.924;2023-02-10T14:37:50;99353.88;;;13.62;100.00
8697;BME280;4385;48.848;8.924;2023-02-10T14:40:18;99352.16;;;13.61;100.00
8697;BME280;4385;48.848;8.924;2023-02-10T14:42:44;99352.09;;;13.57;100.00
8697;BME280;4385;48.848;8.924;2023-02-10T14:45:24;99345.22;;;13.55;100.00
8697;BME280;4385;48.848;8.924;2023-02-10T14:47:52;99351.16;;;13.55;100.00